地図

経路データ

SID SEASON NUMBER BASIN SUBBASIN NAME ISO_TIME NATURE LAT LON WMO_WIND WMO_PRES WMO_AGENCY TRACK_TYPE DIST2LAND LANDFALL IFLAG USA_AGENCY USA_ATCF_ID USA_LAT USA_LON USA_RECORD USA_STATUS USA_WIND USA_PRES USA_SSHS USA_R34_NE USA_R34_SE USA_R34_SW USA_R34_NW USA_R50_NE USA_R50_SE USA_R50_SW USA_R50_NW USA_R64_NE USA_R64_SE USA_R64_SW USA_R64_NW USA_POCI USA_ROCI USA_RMW USA_EYE TOKYO_LAT TOKYO_LON TOKYO_GRADE TOKYO_WIND TOKYO_PRES TOKYO_R50_DIR TOKYO_R50_LONG TOKYO_R50_SHORT TOKYO_R30_DIR TOKYO_R30_LONG TOKYO_R30_SHORT TOKYO_LAND CMA_LAT CMA_LON CMA_CAT CMA_WIND CMA_PRES HKO_LAT HKO_LON HKO_CAT HKO_WIND HKO_PRES NEWDELHI_LAT NEWDELHI_LON NEWDELHI_GRADE NEWDELHI_WIND NEWDELHI_PRES NEWDELHI_CI NEWDELHI_DP NEWDELHI_POCI REUNION_LAT REUNION_LON REUNION_TYPE REUNION_WIND REUNION_PRES REUNION_TNUM REUNION_CI REUNION_RMW REUNION_R34_NE REUNION_R34_SE REUNION_R34_SW REUNION_R34_NW REUNION_R50_NE REUNION_R50_SE REUNION_R50_SW REUNION_R50_NW REUNION_R64_NE REUNION_R64_SE REUNION_R64_SW REUNION_R64_NW BOM_LAT BOM_LON BOM_TYPE BOM_WIND BOM_PRES BOM_TNUM BOM_CI BOM_RMW BOM_R34_NE BOM_R34_SE BOM_R34_SW BOM_R34_NW BOM_R50_NE BOM_R50_SE BOM_R50_SW BOM_R50_NW BOM_R64_NE BOM_R64_SE BOM_R64_SW BOM_R64_NW BOM_ROCI BOM_POCI BOM_EYE BOM_POS_METHOD BOM_PRES_METHOD NADI_LAT NADI_LON NADI_CAT NADI_WIND NADI_PRES WELLINGTON_LAT WELLINGTON_LON WELLINGTON_WIND WELLINGTON_PRES DS824_LAT DS824_LON DS824_STAGE DS824_WIND DS824_PRES TD9636_LAT TD9636_LON TD9636_STAGE TD9636_WIND TD9636_PRES TD9635_LAT TD9635_LON TD9635_WIND TD9635_PRES TD9635_ROCI NEUMANN_LAT NEUMANN_LON NEUMANN_CLASS NEUMANN_WIND NEUMANN_PRES MLC_LAT MLC_LON MLC_CLASS MLC_WIND MLC_PRES USA_GUST BOM_GUST BOM_GUST_PER REUNION_GUST REUNION_GUST_PER USA_SEAHGT USA_SEARAD_NE USA_SEARAD_SE USA_SEARAD_SW USA_SEARAD_NW STORM_SPEED STORM_DIR
1981051S14181 1981 13 SP MM DAMAN 1981-02-20 00:00:00 TS -14.3500 -179.375 30 997 wellington main 225 219 O_______O_O_O_ jtwc_sh SH181981 -14.3000 -179.500 -1 -14.5000 -179.000 30 997 -14.3000 -179.500 1 -14.3000 -179.500 TC 30 20 103
1981051S14181 1981 13 SP MM DAMAN 1981-02-20 03:00:00 TS -14.5881 -178.350 main 263 263 P_______P_P_P_ SH181981 -14.6187 -178.338 -1 -14.5948 -178.312 30 997 -14.5931 -178.340 1 -14.5458 -178.410 TC 30 20 103
1981051S14181 1981 13 SP MM DAMAN 1981-02-20 06:00:00 TS -14.8170 -177.320 main 338 338 O_______P_P_O_ jtwc_sh SH181981 -14.9000 -177.200 -1 -14.7012 -177.579 30 997 -14.8666 -177.201 1 -14.8000 -177.300 TC 30 20 103
1981051S14181 1981 13 SP MM DAMAN 1981-02-20 09:00:00 TS -15.0314 -176.288 main 413 329 P_______P_P_P_ SH181981 -15.1221 -176.112 -1 -14.8322 -176.757 30 997 -15.1066 -176.113 1 -15.0649 -176.170 TC 30 20 102
1981051S14181 1981 13 SP MM DAMAN 1981-02-20 12:00:00 TS -15.2250 -175.275 30 997 wellington main 329 263 O_______O_O_O_ jtwc_sh SH181981 -15.3000 -175.100 -1 -15.0000 -175.800 30 997 -15.3000 -175.100 1 -15.3000 -175.100 TC 30 20 101
1981051S14181 1981 13 SP MM DAMAN 1981-02-20 15:00:00 TS -15.3973 -174.302 main 256 208 P_______P_P_P_ SH181981 -15.4643 -174.177 -1 -15.2119 -174.683 30 997 -15.4412 -174.177 1 -15.4717 -174.170 TC 30 19 100
1981051S14181 1981 13 SP MM DAMAN 1981-02-20 18:00:00 TS -15.5526 -173.341 main 215 201 O_______P_P_O_ jtwc_sh SH181981 -15.6000 -173.300 -1 -15.4577 -173.460 30 997 -15.5527 -173.305 1 -15.6000 -173.300 TC 30 19 99
1981051S14181 1981 13 SP MM DAMAN 1981-02-20 21:00:00 TS -15.6927 -172.376 main 212 212 P_______P_P_P_ SH181981 -15.6917 -172.430 -1 -15.7243 -172.208 30 997 -15.6630 -172.430 1 -15.6916 -172.437 TC 30 19 99
1981051S14181 1981 13 SP MM DAMAN 1981-02-21 00:00:00 TS -15.8500 -171.375 30 997 wellington main 239 250 O_______O_O_O_ jtwc_sh SH181981 -15.8000 -171.500 -1 -16.0000 -171.000 30 997 -15.8000 -171.500 1 -15.8000 -171.500 TC 30 20 100
1981051S14181 1981 13 SP MM DAMAN 1981-02-21 03:00:00 TS -16.0429 -170.296 main 319 319 P_______P_P_P_ SH181981 -15.9773 -170.437 -1 -16.2487 -169.941 32 995 -15.9681 -170.427 1 -15.9776 -170.380 TC 30 22 101
1981051S14181 1981 13 SP MM DAMAN 1981-02-21 06:00:00 TS -16.2692 -169.183 main 426 426 O_______P_P_O_ jtwc_sh SH181981 -16.2000 -169.300 -1 -16.5088 -168.938 35 993 -16.1679 -169.293 1 -16.2000 -169.200 TC 30 22 102
1981051S14181 1981 13 SP MM DAMAN 1981-02-21 09:00:00 TS -16.5131 -168.083 main 533 533 P_______P_P_P_ SH181981 -16.4272 -168.142 -1 -16.7896 -167.966 37 991 -16.4086 -168.138 1 -16.4269 -168.085 TC 30 22 104
1981051S14181 1981 13 SP MM DAMAN 1981-02-21 12:00:00 TS -16.8000 -167.000 40 990 wellington main 651 651 O_______O_O_O_ jtwc_sh SH181981 -16.7000 -167.000 -1 -17.1000 -167.000 40 990 -16.7000 -167.000 1 -16.7000 -167.000 TC 30 21 106
1981051S14181 1981 13 SP MM DAMAN 1981-02-21 15:00:00 TS -17.1127 -165.943 main 769 769 P_______P_P_P_ SH181981 -17.0192 -165.935 -1 -17.4083 -165.998 43 987 -17.0039 -165.899 1 -17.0194 -165.942 TC 30 21 109
1981051S14181 1981 13 SP MM DAMAN 1981-02-21 18:00:00 TS -17.4786 -164.905 main 884 884 O_______P_P_O_ jtwc_sh SH181981 -17.4000 -164.900 -1 -17.7506 -164.997 47 985 -17.3638 -164.823 1 -17.4000 -164.900 TC 30 21 111
1981051S14181 1981 13 SP MM DAMAN 1981-02-21 21:00:00 TS -17.8897 -163.863 main 999 999 P_______P_P_P_ SH181981 -17.8122 -163.834 -1 -18.1426 -163.997 51 982 -17.7917 -163.786 1 -17.8122 -163.834 TC 32 22 115
1981051S14181 1981 13 SP MM DAMAN 1981-02-22 00:00:00 TS -18.3750 -162.850 55 980 wellington main 1128 1128 O_______O_O_O_ jtwc_sh SH181981 -18.3000 -162.800 -1 -18.6000 -163.000 55 980 -18.3000 -162.800 2 -18.3000 -162.800 TC 35 22 118
1981051S14181 1981 13 SP MM DAMAN 1981-02-22 03:00:00 TS -18.9012 -161.820 main 1247 1247 P_______P_P_P_ SH181981 -18.8546 -161.812 -1 -19.0528 -161.856 53 981 -18.8429 -161.802 2 -18.8546 -161.812 TC 37 22 121
1981051S14181 1981 13 SP MM DAMAN 1981-02-22 06:00:00 TS -19.5124 -160.849 main 1371 1371 O_______P_P_O_ jtwc_sh SH181981 -19.5000 -160.900 -1 -19.5794 -160.734 52 982 -19.4703 -160.863 2 -19.5000 -160.900 TC 40 22 127
1981051S14181 1981 13 SP MM DAMAN 1981-02-22 09:00:00 TS -20.2013 -159.960 main 1481 1481 P_______P_P_P_ SH181981 -20.2048 -160.040 -1 -20.2157 -159.745 51 983 -20.1874 -160.017 2 -20.1973 -160.040 TC 40 21 134
1981051S14181 1981 13 SP MM DAMAN 1981-02-22 12:00:00 TS -21.0000 -159.225 50 985 wellington main 1596 1596 O_______O_O_O_ jtwc_sh SH181981 -21.0000 -159.300 -1 -21.0000 -159.000 50 985 -21.0000 -159.300 2 -21.0000 -159.300 TC 40 21 144
1981051S14181 1981 13 SP MM DAMAN 1981-02-22 15:00:00 TS -21.8815 -158.631 main 1699 1699 P_______P_P_P_ SH181981 -21.8472 -158.674 -1 -21.9297 -158.531 48 985 -21.8445 -158.643 2 -21.9047 -158.675 TC 37 21 153
1981051S14181 1981 13 SP MM DAMAN 1981-02-22 18:00:00 TS -22.8755 -158.213 main 1792 1792 O_______P_P_O_ jtwc_sh SH181981 -22.8000 -158.200 -1 -23.0130 -158.326 47 986 -22.7889 -158.125 2 -22.9000 -158.200 TC 35 22 163
1981051S14181 1981 13 SP MM DAMAN 1981-02-22 21:00:00 TS -23.9421 -157.941 main 1879 1879 P_______P_P_P_ SH181981 -23.8324 -157.818 -1 -24.2149 -158.359 46 986 -23.8388 -157.770 2 -23.8824 -157.817 TC 32 23 172
1981051S14181 1981 13 SP MM DAMAN 1981-02-23 00:00:00 TS -25.1250 -157.850 45 987 wellington main 1958 1958 O_______O_O_O_ jtwc_sh SH181981 -25.0000 -157.600 -1 -25.5000 -158.600 45 987 -25.0000 -157.600 2 -25.0000 -157.600 TC 30 25 178
1981051S14181 1981 13 SP MM DAMAN 1981-02-23 03:00:00 TS -26.4574 -157.846 main 2064 2056 P_______P_P_P_ SH181981 -26.3048 -157.489 -1 -26.8830 -158.928 42 989 -26.2872 -157.480 2 -26.3548 -157.489 TC 30 28 184
1981051S14181 1981 13 SP MM DAMAN 1981-02-23 06:00:00 TS -27.8746 -158.056 main 2148 2148 O_______P_P_O_ jtwc_sh SH181981 -27.7000 -157.600 -1 -28.3231 -159.463 40 991 -27.6752 -157.562 2 -27.8000 -157.600 TC 30 29 191
1981051S14181 1981 13 SP MM DAMAN 1981-02-23 09:00:00 TS -29.2727 -158.465 main 2233 2188 P_______P_P_P_ SH181981 -29.1142 -157.909 -1 -29.7266 -160.168 37 993 -29.1009 -157.888 2 -29.1490 -157.895 TC 30 29 199
1981051S14181 1981 13 SP MM DAMAN 1981-02-23 12:00:00 TS -30.6250 -159.125 35 995 wellington main 2188 2053 O_______O_O_O_ jtwc_sh SH181981 -30.5000 -158.500 -1 -31.0000 -161.000 35 995 -30.5000 -158.500 1 -30.5000 -158.500 TC 30 30 207
1981051S14181 1981 13 SP MM DAMAN 1981-02-23 15:00:00 TS -31.9121 -160.028 main 2048 1897 P_______P_P_P_ SH181981 -31.7782 -159.289 -1 -32.1053 -161.999 33 995 -31.8209 -159.424 1 -31.9442 -159.400 TC 30 31 217
1981051S14181 1981 13 SP MM DAMAN 1981-02-23 18:00:00 TS -33.1025 -161.324 main 1884 1724 O_______P_P_O_ jtwc_sh SH181981 -33.0000 -160.400 -1 -33.0581 -163.093 32 996 -33.0667 -160.613 1 -33.3000 -160.600 TC 30 32 227
1981051S14181 1981 13 SP MM DAMAN 1981-02-23 21:00:00 TS -34.1200 -162.824 main 1715 1557 P_______P_P_P_ SH181981 -34.2080 -161.844 -1 -33.8558 -164.142 31 996 -34.2540 -161.997 1 -34.4262 -161.995 TC 30 31 235
1981051S14181 1981 13 SP MM DAMAN 1981-02-24 00:00:00 TS -34.8857 -164.357 30 997 wellington main 1549 1450 O_______O_O_O_ jtwc_sh SH181981 -35.4000 -163.500 -1 -34.5000 -165.000 30 997 -35.4000 -163.500 1 -35.4000 -163.500 TC 30 24 249
1981051S14181 1981 13 SP MM DAMAN 1981-02-24 03:00:00 NR -35.0012 -165.555 main 1441 1411 ________P_____ SH181981 -1 -35.0012 -165.555 30 997 1 TC 13 247
1981051S14181 1981 13 SP MM DAMAN 1981-02-24 06:00:00 NR -35.3935 -165.850 main 1402 1385 ________P_____ -1 -35.3935 -165.850 30 997 1 8 205
1981051S14181 1981 13 SP MM DAMAN 1981-02-24 09:00:00 NR -35.7145 -165.970 main 1385 1378 ________P_____ -1 -35.7145 -165.970 30 997 1 6 191
1981051S14181 1981 13 SP MM DAMAN 1981-02-24 12:00:00 NR -36.0000 -166.000 30 997 wellington main 1378 ________O_____ -1 -36.0000 -166.000 30 997 6 0

デジタル台風データ・検索

IBTrACS Databaseについて

本データベースは、米国NOAAが公開する1842年以降の世界の熱帯低気圧のベストトラックデータアーカイブInternational Best Track Archive for Climate Stewardship (IBTrACS)を、ウェブで閲覧しやすい形式に変換したものです。

最終更新日:2021-12-08